Decoded Metar for PALH (ANCHORAGE/LAKE H in AK, USA) (IATA:LHD) | Meteo·Mobile Aviation Weather
aviador You're here:

PALH Decoded Metar

ANCHORAGE/LAKE H in AK, USA
Report Time2018-12-10 14:53:00
UTC Time2018-12-10 15:12:14
Flight Rules vfr VFR
Wind360° at 04 kt
W.Decomp.*RWY 32: 3.9 kt HW 1.0 kt RCW
Visibility9999 m
Phenomena:N/A
Clouds:Few 085 Hf
Overcast 100 Hf
Expected CloudBase > 1,200 ft AGL from Temp-Dew spread
Ceiling10,000 ft
Temp-5°C (ISA -20)
Dew Point-8°C (80% RH)
AAT-9.3°C
QNH984 hPa
Density Alt-1,329 ft
Elevation72 ft
Report Wrong Elevation
Raw Report
PALH 101453Z 36004KT 10SM FEW085 OVC100 M05/M08 A2905 RMK AO2
SNB00E18 SLP837 P0000 60000 T10501078 56018 $=

Extra information for PALH:More info

Metar Taf Metar & Taf Last 4 Metars F.Rules Stats Wind Profile Meteogram Temp Stats Airport Information Weather charts Add Link Nearby VenuesMetar ALERT Operation Metar Decoded Social comments

AIRNAV info for PALH